HK-0002 weather

CLOSED Heli-Tours Helipad
Hong Kong, Hong Kong

Public forecast

Using degrees Celsius for public forecast. Weather courtesy of forecast.io.

Closest aviation weather report (METAR) to Heli-Tours Helipad

Closest report is Hong Kong International Airport, 13.4 nm (24.9 km) W. Retrieved 2020/06/02 11:00 UTC (23 minutes ago):

VHHH 021100Z 25007KT 220V280 9999 FEW013 SCT025 29/26 Q1008 NOSIG

Closest aviation forecast (TAF) to Heli-Tours Helipad

Closest forecast is Hong Kong International Airport, 13.4 nm (24.9 km) W. Retrieved 2020/06/02 06:24 UTC (5 hours ago):

TAF VHHH 020500Z 0206/0312 20010KT 9999 FEW015 SCT035 TX31/0206Z TX33/0306Z TN28/0222Z TEMPO 0206/0211 VRB15G25KT 2000 TSRA SHRA FEW008CB SCT015 BKN040